createdAt,value
2022-10-25T00:03:31.591Z,5.90
2022-10-25T00:08:36.388Z,6.57
2022-10-25T00:18:43.328Z,6.18
2022-10-25T00:23:48.399Z,6.45
2022-10-25T00:28:54.415Z,6.05
2022-10-25T00:33:57.891Z,7.55
2022-10-25T00:39:02.933Z,7.82
2022-10-25T00:44:47.826Z,8.68
2022-10-25T00:49:56.846Z,6.70
2022-10-25T00:55:03.687Z,7.75
2022-10-25T01:00:08.713Z,6.50
2022-10-25T01:05:12.510Z,6.25
2022-10-25T01:10:17.804Z,6.60
2022-10-25T01:15:24.416Z,6.30
2022-10-25T01:20:58.230Z,6.30
2022-10-25T01:26:41.369Z,5.63
2022-10-25T01:31:50.364Z,5.85
2022-10-25T01:37:01.421Z,5.97
2022-10-25T01:42:08.757Z,6.65
2022-10-25T01:47:18.774Z,6.00
2022-10-25T01:52:24.026Z,6.05
2022-10-25T01:57:49.672Z,5.88
2022-10-25T02:03:13.854Z,6.85
2022-10-25T02:08:24.311Z,6.10
2022-10-25T02:13:33.355Z,6.20
2022-10-25T02:19:02.081Z,5.65
2022-10-25T02:24:10.796Z,6.15
2022-10-25T02:29:16.399Z,5.38
2022-10-25T02:34:21.497Z,5.50
2022-10-25T02:39:30.500Z,5.53
2022-10-25T02:44:35.178Z,5.45
2022-10-25T02:49:40.278Z,5.57
2022-10-25T02:54:43.803Z,5.60
2022-10-25T02:59:47.184Z,5.88
2022-10-25T03:04:51.926Z,6.10
2022-10-25T03:14:58.811Z,5.68
2022-10-25T03:20:03.547Z,6.83
2022-10-25T03:30:17.204Z,5.97
2022-10-25T03:35:22.173Z,6.15
2022-10-25T03:40:25.695Z,6.68
2022-10-25T03:45:29.165Z,7.95
2022-10-25T03:50:33.974Z,6.53
2022-10-25T04:00:40.859Z,5.60
2022-10-25T04:05:45.875Z,5.53
2022-10-25T04:10:49.263Z,5.65
2022-10-25T04:15:52.757Z,5.97
2022-10-25T04:20:59.705Z,5.70
2022-10-25T04:26:03.088Z,6.68
2022-10-25T04:31:06.711Z,6.38
2022-10-25T04:36:11.509Z,6.18
2022-10-25T04:41:15.216Z,5.85
2022-10-25T04:46:19.069Z,6.18
2022-10-25T04:51:23.935Z,5.67
2022-10-25T05:01:30.600Z,6.07
2022-10-25T05:06:35.486Z,5.10
2022-10-25T05:16:42.266Z,5.18
2022-10-25T05:21:47.949Z,5.30
2022-10-25T05:26:51.292Z,5.70
2022-10-25T05:31:54.699Z,5.90
2022-10-25T05:36:59.732Z,5.10
2022-10-25T05:42:06.457Z,5.47
2022-10-25T05:47:10.192Z,6.18
2022-10-25T05:52:15.662Z,5.30
2022-10-25T06:02:22.340Z,4.55
2022-10-25T06:07:27.566Z,4.53
2022-10-25T06:12:30.915Z,5.05
2022-10-25T06:17:34.353Z,5.05
2022-10-25T06:22:39.228Z,5.00
2022-10-25T06:27:44.221Z,5.22
2022-10-25T06:32:47.909Z,5.60
2022-10-25T06:37:52.861Z,4.70
2022-10-25T06:42:57.055Z,7.75
2022-10-25T06:48:00.601Z,5.28
2022-10-25T06:53:05.522Z,5.85
2022-10-25T06:58:08.968Z,5.53
2022-10-25T07:03:12.347Z,5.68
2022-10-25T07:13:20.256Z,6.10
2022-10-25T07:18:24.027Z,6.82
2022-10-25T07:23:29.313Z,6.53
2022-10-25T07:28:33.038Z,4.97
2022-10-25T07:33:36.717Z,5.38
2022-10-25T07:38:42.144Z,4.63
2022-10-25T07:43:45.599Z,4.88
2022-10-25T07:48:50.010Z,4.53
2022-10-25T07:53:55.769Z,4.50
2022-10-25T07:58:59.585Z,3.97
2022-10-25T08:04:03.089Z,4.35
2022-10-25T08:09:14.539Z,4.57
2022-10-25T08:14:18.616Z,5.00
2022-10-25T08:19:22.391Z,4.20
2022-10-25T08:24:27.227Z,3.65
2022-10-25T08:29:30.955Z,3.60
2022-10-25T08:34:34.852Z,3.63
2022-10-25T08:39:40.375Z,3.20
2022-10-25T08:44:48.199Z,3.58
2022-10-25T08:49:56.985Z,3.47
2022-10-25T08:55:05.823Z,3.25
2022-10-25T09:00:17.852Z,3.03
2022-10-25T09:05:35.961Z,3.42
2022-10-25T09:10:51.556Z,3.40
2022-10-25T09:16:06.147Z,2.80
2022-10-25T09:21:22.179Z,3.20
2022-10-25T09:26:43.839Z,4.00
2022-10-25T09:31:52.883Z,4.07
2022-10-25T09:37:03.466Z,3.85
2022-10-25T09:42:19.669Z,4.50
2022-10-25T09:47:32.128Z,3.75
2022-10-25T09:52:42.347Z,4.18
2022-10-25T09:57:47.963Z,2.70
2022-10-25T10:02:51.810Z,2.38
2022-10-25T10:07:56.477Z,2.05
2022-10-25T10:13:06.455Z,2.33
2022-10-25T10:18:27.497Z,2.47
2022-10-25T10:23:33.972Z,2.50
2022-10-25T10:28:39.526Z,1.70
2022-10-25T10:33:49.816Z,1.80
2022-10-25T10:38:53.944Z,1.85
2022-10-25T10:44:14.119Z,1.67
2022-10-25T10:49:18.751Z,1.73
2022-10-25T10:54:26.672Z,1.98
2022-10-25T10:59:40.620Z,1.73
2022-10-25T11:04:50.898Z,1.90
2022-10-25T11:09:54.712Z,1.92
2022-10-25T11:14:59.743Z,1.70
2022-10-25T11:20:20.719Z,2.45
2022-10-25T11:25:35.426Z,1.85
2022-10-25T11:30:46.020Z,1.70
2022-10-25T11:36:30.372Z,1.90
2022-10-25T11:41:45.228Z,1.90
2022-10-25T11:46:58.432Z,1.60
2022-10-25T11:52:20.049Z,2.20
2022-10-25T11:57:36.177Z,1.70
2022-10-25T12:02:57.034Z,1.70
2022-10-25T12:08:15.853Z,1.90
2022-10-25T12:13:23.381Z,1.75
2022-10-25T12:18:36.903Z,1.98
2022-10-25T12:23:45.131Z,1.95
2022-10-25T12:28:51.238Z,1.80
2022-10-25T12:34:01.022Z,2.08
2022-10-25T12:39:11.863Z,2.40
2022-10-25T12:44:33.198Z,2.70
2022-10-25T12:50:02.245Z,3.40
2022-10-25T12:55:37.371Z,3.60
2022-10-25T13:00:56.486Z,3.90
2022-10-25T13:06:26.907Z,3.55
2022-10-25T13:11:36.097Z,3.72
2022-10-25T13:16:39.880Z,4.13
2022-10-25T13:22:34.132Z,4.50
2022-10-25T13:28:01.959Z,4.03
2022-10-25T13:33:28.627Z,3.20
2022-10-25T13:38:39.550Z,4.07
2022-10-25T13:44:01.133Z,4.35
2022-10-25T13:49:22.193Z,3.85
2022-10-25T13:54:37.182Z,3.30
2022-10-25T14:00:02.485Z,4.07
2022-10-25T14:05:11.781Z,3.30
2022-10-25T14:10:28.639Z,3.67
2022-10-25T14:15:41.426Z,3.97
2022-10-25T14:20:47.611Z,3.80
2022-10-25T14:25:57.190Z,4.30
2022-10-25T14:31:02.529Z,4.03
2022-10-25T14:36:11.119Z,3.85
2022-10-25T14:41:16.253Z,3.90
2022-10-25T14:46:21.791Z,4.50
2022-10-25T14:51:30.016Z,4.40
2022-10-25T14:56:38.217Z,5.15
2022-10-25T15:01:42.972Z,4.15
2022-10-25T15:06:50.291Z,4.18
2022-10-25T15:12:18.432Z,3.83
2022-10-25T15:17:30.353Z,4.93
2022-10-25T15:22:42.657Z,4.43
2022-10-25T15:27:47.528Z,5.55
2022-10-25T15:37:54.819Z,7.20
2022-10-25T15:42:59.808Z,6.65
2022-10-25T15:48:05.712Z,5.88
2022-10-25T15:53:12.791Z,6.85
2022-10-25T15:58:18.514Z,8.20
2022-10-25T16:03:24.182Z,8.73
2022-10-25T16:08:28.421Z,8.63
2022-10-25T16:13:36.690Z,8.98
2022-10-25T16:18:40.507Z,9.00
2022-10-25T16:23:44.000Z,9.25
2022-10-25T16:28:49.673Z,9.48
2022-10-25T16:33:53.108Z,8.50
2022-10-25T16:38:57.536Z,10.27
2022-10-25T16:44:02.243Z,9.77
2022-10-25T16:49:06.287Z,9.65
2022-10-25T16:54:11.561Z,8.43
2022-10-25T16:59:16.836Z,8.95
2022-10-25T17:04:23.476Z,8.60
2022-10-25T17:09:27.371Z,8.05
2022-10-25T17:14:32.435Z,7.43
2022-10-25T17:19:36.167Z,7.43
2022-10-25T17:24:39.544Z,7.75
2022-10-25T17:29:44.818Z,6.90
2022-10-25T17:34:48.551Z,7.00
2022-10-25T17:39:52.378Z,7.60
2022-10-25T17:44:57.298Z,7.55
2022-10-25T17:55:07.156Z,8.80
2022-10-25T18:00:14.553Z,10.02
2022-10-25T18:05:21.117Z,10.07
2022-10-25T18:10:25.449Z,10.52
2022-10-25T18:15:30.847Z,9.83
2022-10-25T18:20:34.668Z,9.38
2022-10-25T18:25:38.449Z,8.35
2022-10-25T18:30:45.971Z,9.57
2022-10-25T18:35:49.418Z,8.38
2022-10-25T18:40:53.525Z,8.75
2022-10-25T18:46:01.984Z,9.00
2022-10-25T18:51:06.520Z,9.25
2022-10-25T18:56:11.702Z,8.45
2022-10-25T19:01:18.749Z,8.75
2022-10-25T19:06:22.735Z,9.18
2022-10-25T19:11:26.903Z,9.27
2022-10-25T19:16:32.146Z,8.38
2022-10-25T19:21:36.380Z,9.35
2022-10-25T19:26:40.155Z,7.68
2022-10-25T19:31:45.352Z,8.32
2022-10-25T19:36:50.514Z,8.55
2022-10-25T19:41:54.363Z,8.10
2022-10-25T19:46:59.376Z,8.30
2022-10-25T19:52:02.957Z,9.00
2022-10-25T19:57:07.244Z,8.32
2022-10-25T20:02:12.590Z,8.55
2022-10-25T20:07:16.333Z,9.27
2022-10-25T20:12:20.288Z,8.65
2022-10-25T20:17:25.551Z,8.77
2022-10-25T20:22:28.977Z,9.63
2022-10-25T20:27:33.353Z,9.23
2022-10-25T20:32:40.731Z,8.93
2022-10-25T20:37:44.645Z,9.20
2022-10-25T20:42:48.177Z,9.20
2022-10-25T20:47:55.468Z,9.35
2022-10-25T20:53:15.672Z,8.23
2022-10-25T20:58:21.358Z,8.65
2022-10-25T21:03:27.270Z,10.15
2022-10-25T21:08:31.373Z,9.20
2022-10-25T21:13:37.455Z,9.07
2022-10-25T21:18:43.307Z,10.30
2022-10-25T21:23:46.770Z,9.52
2022-10-25T21:28:50.859Z,10.50
2022-10-25T21:33:59.342Z,10.63
2022-10-25T21:39:03.289Z,10.45
2022-10-25T21:49:12.035Z,9.45
2022-10-25T21:54:15.477Z,9.35
2022-10-25T21:59:18.839Z,9.75
2022-10-25T22:04:24.193Z,10.32
2022-10-25T22:09:27.879Z,9.15
2022-10-25T22:14:31.615Z,10.80
2022-10-25T22:19:37.039Z,9.43
2022-10-25T22:24:40.377Z,9.13
2022-10-25T22:29:44.095Z,9.90
2022-10-25T22:34:49.046Z,9.63
2022-10-25T22:39:52.708Z,10.18
2022-10-25T22:44:56.195Z,9.63
2022-10-25T22:50:01.327Z,10.30
2022-10-25T22:55:06.903Z,9.90
2022-10-25T23:00:11.853Z,10.85
2022-10-25T23:05:16.878Z,10.13
2022-10-25T23:10:20.501Z,10.20
2022-10-25T23:15:24.254Z,10.82
2022-10-25T23:20:29.631Z,10.95
2022-10-25T23:25:34.772Z,10.88
2022-10-25T23:30:38.666Z,10.70
2022-10-25T23:35:43.482Z,10.80
2022-10-25T23:45:51.364Z,10.93
2022-10-25T23:56:07.096Z,10.80
